createdAt,value
2018-06-13T00:00:38.436Z,0
2018-06-13T00:01:18.854Z,0
2018-06-13T00:01:59.289Z,0
2018-06-13T00:02:39.712Z,0
2018-06-13T00:05:08.778Z,0
2018-06-13T00:05:50.222Z,0
2018-06-13T00:06:31.624Z,0
2018-06-13T00:07:11.951Z,0
2018-06-13T00:07:52.489Z,0
2018-06-13T00:08:32.871Z,0
2018-06-13T00:09:13.559Z,0
2018-06-13T00:09:54.703Z,0
2018-06-13T00:10:35.524Z,0
2018-06-13T00:11:15.924Z,0
2018-06-13T00:11:58.078Z,0
2018-06-13T00:12:38.179Z,0
2018-06-13T00:13:18.524Z,0
2018-06-13T00:13:59.128Z,0
2018-06-13T00:14:41.166Z,0
2018-06-13T00:15:21.812Z,0
2018-06-13T00:16:02.678Z,0
2018-06-13T00:16:43.769Z,0
2018-06-13T00:17:24.222Z,0
2018-06-13T00:18:04.655Z,0
2018-06-13T00:18:45.651Z,0
2018-06-13T00:19:26.180Z,0
2018-06-13T00:20:06.510Z,0
2018-06-13T00:20:46.980Z,0
2018-06-13T00:21:27.426Z,0
2018-06-13T00:22:08.092Z,0
2018-06-13T00:22:48.337Z,0
2018-06-13T00:23:29.862Z,0
2018-06-13T00:24:11.277Z,0
2018-06-13T00:24:51.738Z,0
2018-06-13T00:25:32.048Z,0
2018-06-13T00:26:12.664Z,0
2018-06-13T00:26:52.909Z,0
2018-06-13T00:27:33.316Z,0
2018-06-13T00:28:13.817Z,0
2018-06-13T00:28:54.205Z,0
2018-06-13T00:29:34.564Z,0
2018-06-13T00:30:14.975Z,0
2018-06-13T00:30:56.398Z,0
2018-06-13T00:31:37.018Z,0
2018-06-13T00:32:18.761Z,0
2018-06-13T00:32:59.191Z,0
2018-06-13T00:33:39.601Z,0
2018-06-13T00:34:20.109Z,0
2018-06-13T00:35:00.680Z,0
2018-06-13T00:35:40.938Z,0
2018-06-13T00:36:22.489Z,0
2018-06-13T00:37:03.055Z,0
2018-06-13T00:37:43.517Z,0
2018-06-13T00:38:23.970Z,0
2018-06-13T00:39:04.440Z,0
2018-06-13T00:39:44.873Z,0
2018-06-13T00:40:25.494Z,0
2018-06-13T00:41:06.013Z,0
2018-06-13T00:41:46.494Z,0
2018-06-13T00:42:26.816Z,0
2018-06-13T00:43:07.197Z,0
2018-06-13T00:43:47.673Z,0
2018-06-13T00:44:27.994Z,0
2018-06-13T00:45:08.418Z,0
2018-06-13T00:45:49.782Z,0
2018-06-13T00:46:30.122Z,0
2018-06-13T00:47:11.482Z,0
2018-06-13T00:47:51.527Z,0
2018-06-13T00:48:31.850Z,0
2018-06-13T00:49:12.326Z,0
2018-06-13T00:49:52.714Z,0
2018-06-13T00:50:33.201Z,0
2018-06-13T00:51:13.578Z,0
2018-06-13T00:51:53.987Z,0
2018-06-13T00:52:34.701Z,0
2018-06-13T00:53:14.877Z,0
2018-06-13T00:53:55.359Z,0
2018-06-13T00:54:37.502Z,0
2018-06-13T00:55:17.974Z,0
2018-06-13T00:55:58.224Z,0
2018-06-13T00:58:11.440Z,0
2018-06-13T00:58:51.792Z,0
2018-06-13T00:59:32.817Z,0
2018-06-13T01:00:12.936Z,0
2018-06-13T01:00:53.343Z,0
2018-06-13T01:01:33.745Z,0
2018-06-13T01:02:14.161Z,0
2018-06-13T01:02:54.613Z,0
2018-06-13T01:03:34.969Z,0
2018-06-13T01:04:15.467Z,0
2018-06-13T01:04:55.810Z,0
2018-06-13T01:05:36.268Z,0
2018-06-13T01:06:16.641Z,0
2018-06-13T01:06:57.026Z,0
2018-06-13T01:07:37.456Z,0
2018-06-13T01:08:17.933Z,0
2018-06-13T01:08:58.376Z,0
2018-06-13T01:09:38.696Z,0
2018-06-13T01:10:19.118Z,0
2018-06-13T01:11:00.264Z,0
2018-06-13T01:11:40.634Z,0
2018-06-13T01:12:21.016Z,0
2018-06-13T01:13:01.469Z,0
2018-06-13T01:13:41.887Z,0
2018-06-13T01:14:23.229Z,0
2018-06-13T01:15:03.627Z,0
2018-06-13T01:15:44.001Z,0
2018-06-13T01:16:24.428Z,0
2018-06-13T01:17:04.805Z,0
2018-06-13T01:17:45.188Z,0
2018-06-13T01:18:25.659Z,0
2018-06-13T01:19:06.065Z,0
2018-06-13T01:19:51.557Z,0
2018-06-13T01:20:31.945Z,0
2018-06-13T01:21:12.399Z,0
2018-06-13T01:21:52.816Z,0
2018-06-13T01:22:33.271Z,0
2018-06-13T01:23:13.603Z,0
2018-06-13T01:23:54.235Z,0
2018-06-13T01:24:34.940Z,0
2018-06-13T01:25:15.313Z,0
2018-06-13T01:25:56.464Z,0
2018-06-13T01:26:37.775Z,0
2018-06-13T01:27:18.980Z,0
2018-06-13T01:27:59.451Z,0
2018-06-13T01:28:39.861Z,0
2018-06-13T01:29:20.637Z,0
2018-06-13T01:30:00.822Z,0
2018-06-13T01:30:41.198Z,0
2018-06-13T01:31:21.641Z,0
2018-06-13T01:32:02.042Z,0
2018-06-13T01:32:42.503Z,0
2018-06-13T01:33:22.819Z,0
2018-06-13T01:34:03.258Z,0
2018-06-13T01:34:43.708Z,0
2018-06-13T01:35:24.894Z,0
2018-06-13T01:36:05.300Z,0
2018-06-13T01:36:45.837Z,0
2018-06-13T01:37:26.250Z,0
2018-06-13T01:38:06.584Z,0
2018-06-13T01:38:46.994Z,0
2018-06-13T01:39:27.403Z,0
2018-06-13T01:40:07.737Z,0
2018-06-13T01:40:48.231Z,0
2018-06-13T01:41:28.632Z,0
2018-06-13T01:42:09.017Z,0
2018-06-13T01:42:49.457Z,0
2018-06-13T01:43:29.815Z,0
2018-06-13T01:44:10.207Z,0
2018-06-13T01:44:50.539Z,0
2018-06-13T01:45:31.052Z,0
2018-06-13T01:46:11.402Z,0
2018-06-13T01:46:51.759Z,0
2018-06-13T01:47:32.414Z,0
2018-06-13T01:48:12.657Z,0
2018-06-13T01:48:52.994Z,0
2018-06-13T01:49:33.444Z,0
2018-06-13T01:50:13.800Z,0
2018-06-13T01:50:54.303Z,0
2018-06-13T01:51:34.723Z,0
2018-06-13T01:52:15.125Z,0
2018-06-13T01:52:55.546Z,0
2018-06-13T01:53:35.927Z,0
2018-06-13T01:54:16.301Z,0
2018-06-13T01:54:56.734Z,0
2018-06-13T01:55:37.139Z,0
2018-06-13T01:56:17.538Z,0
2018-06-13T01:56:59.515Z,0
2018-06-13T01:57:39.873Z,0
2018-06-13T01:58:20.292Z,0
2018-06-13T01:59:00.636Z,0
2018-06-13T01:59:41.025Z,0
2018-06-13T02:00:21.461Z,0
2018-06-13T02:01:01.872Z,0
2018-06-13T02:01:42.240Z,0
2018-06-13T02:02:22.634Z,0
2018-06-13T02:03:03.108Z,0
2018-06-13T02:03:48.125Z,0
2018-06-13T02:04:28.463Z,0
2018-06-13T02:05:11.116Z,0
2018-06-13T02:05:52.271Z,0
2018-06-13T02:06:34.069Z,0
2018-06-13T02:07:14.440Z,0
2018-06-13T02:07:54.963Z,0
2018-06-13T02:08:37.720Z,0
2018-06-13T02:09:18.193Z,0
2018-06-13T02:09:58.647Z,0
2018-06-13T02:10:38.945Z,0
2018-06-13T02:11:22.875Z,0
2018-06-13T02:12:06.155Z,0
2018-06-13T02:12:46.500Z,0
2018-06-13T02:13:26.915Z,0
2018-06-13T02:14:07.537Z,0
2018-06-13T02:14:47.845Z,0
2018-06-13T02:15:28.234Z,0
2018-06-13T02:16:15.834Z,0
2018-06-13T02:16:56.211Z,0
2018-06-13T02:17:36.510Z,0
2018-06-13T02:18:17.002Z,0
2018-06-13T02:18:57.417Z,0
2018-06-13T02:19:37.724Z,0
2018-06-13T02:20:18.141Z,0
2018-06-13T02:20:58.544Z,0
2018-06-13T02:21:39.021Z,0
2018-06-13T02:22:19.313Z,0
2018-06-13T02:22:59.709Z,0
2018-06-13T02:23:40.165Z,0
2018-06-13T02:24:20.512Z,0
2018-06-13T02:25:00.937Z,0
2018-06-13T02:25:41.303Z,0
2018-06-13T02:26:21.638Z,0
2018-06-13T02:27:02.143Z,0
2018-06-13T02:27:42.509Z,0
2018-06-13T02:28:22.884Z,0
2018-06-13T02:29:03.349Z,0
2018-06-13T02:29:43.777Z,0
2018-06-13T02:30:25.684Z,0
2018-06-13T02:31:06.634Z,0
2018-06-13T02:31:47.038Z,0
2018-06-13T02:32:28.014Z,0
2018-06-13T02:33:08.363Z,0
2018-06-13T02:33:49.900Z,0
2018-06-13T02:34:30.811Z,0
2018-06-13T02:35:11.023Z,0
2018-06-13T02:35:51.456Z,0
2018-06-13T02:36:31.818Z,0
2018-06-13T02:37:15.516Z,0
2018-06-13T02:37:55.954Z,0
2018-06-13T02:38:38.744Z,0
2018-06-13T02:39:19.148Z,0
2018-06-13T02:39:59.915Z,0
2018-06-13T02:40:40.277Z,0
2018-06-13T02:41:22.550Z,0
2018-06-13T02:42:03.740Z,0
2018-06-13T02:42:46.129Z,0
2018-06-13T02:43:26.384Z,0
2018-06-13T02:44:08.597Z,0
2018-06-13T02:44:51.004Z,0
2018-06-13T02:45:31.384Z,0
2018-06-13T02:46:11.872Z,0
2018-06-13T02:52:31.088Z,0
2018-06-13T02:53:11.370Z,0
2018-06-13T02:53:51.786Z,4
2018-06-13T02:54:32.169Z,4
2018-06-13T02:55:12.555Z,4
2018-06-13T02:55:52.971Z,4
2018-06-13T02:56:33.494Z,4
2018-06-13T02:57:14.123Z,0
2018-06-13T02:57:54.470Z,0
2018-06-13T02:58:34.852Z,4
2018-06-13T02:59:15.324Z,4
2018-06-13T02:59:55.765Z,4
2018-06-13T03:00:36.163Z,4
2018-06-13T03:01:16.724Z,4
2018-06-13T03:01:57.107Z,4
2018-06-13T03:02:37.770Z,0
2018-06-13T03:03:18.159Z,4
2018-06-13T03:03:58.610Z,4
2018-06-13T03:04:39.022Z,4
2018-06-13T03:05:19.529Z,4
2018-06-13T03:05:59.863Z,4
2018-06-13T03:06:40.338Z,8
2018-06-13T03:07:20.743Z,4
2018-06-13T03:08:01.149Z,4
2018-06-13T03:08:41.975Z,4
2018-06-13T03:09:22.275Z,8
2018-06-13T03:10:02.799Z,4
2018-06-13T03:10:43.092Z,8
2018-06-13T03:11:23.735Z,8
2018-06-13T03:12:05.166Z,8
2018-06-13T03:12:45.669Z,8
2018-06-13T03:13:26.116Z,8
2018-06-13T03:14:06.395Z,12
2018-06-13T03:14:46.832Z,12
2018-06-13T03:15:27.195Z,12
2018-06-13T03:16:08.862Z,12
2018-06-13T03:16:49.322Z,16
2018-06-13T03:17:29.915Z,16
2018-06-13T03:18:10.425Z,20
2018-06-13T03:18:50.868Z,16
2018-06-13T03:19:31.630Z,20
2018-06-13T03:20:12.149Z,20
2018-06-13T03:20:53.189Z,20
2018-06-13T03:21:33.487Z,20
2018-06-13T03:22:14.074Z,20
2018-06-13T03:22:54.512Z,16
2018-06-13T03:23:34.828Z,20
2018-06-13T03:24:15.277Z,20
2018-06-13T03:24:55.796Z,20
2018-06-13T03:25:36.201Z,24
2018-06-13T03:26:16.646Z,20
2018-06-13T03:28:47.236Z,20
2018-06-13T03:29:26.872Z,20
2018-06-13T03:30:07.290Z,24
2018-06-13T03:30:47.855Z,24
2018-06-13T03:31:29.105Z,24
2018-06-13T03:32:09.462Z,28
2018-06-13T03:32:49.836Z,28
2018-06-13T03:33:30.238Z,28
2018-06-13T03:35:49.682Z,36
2018-06-13T03:36:30.167Z,36
2018-06-13T03:37:10.898Z,40
2018-06-13T03:37:51.292Z,44
2018-06-13T03:38:31.789Z,48
2018-06-13T03:42:20.127Z,40
2018-06-13T03:43:00.434Z,44
2018-06-13T03:43:40.882Z,48
2018-06-13T03:44:22.050Z,48
2018-06-13T03:45:02.527Z,48
2018-06-13T03:45:42.899Z,48
2018-06-13T03:46:23.620Z,52
2018-06-13T03:47:04.051Z,56
2018-06-13T03:47:47.088Z,52
2018-06-13T03:48:28.112Z,56
2018-06-13T03:49:08.567Z,60
2018-06-13T03:49:48.947Z,64
2018-06-13T03:50:29.350Z,64
2018-06-13T03:51:09.717Z,68
2018-06-13T03:51:50.135Z,68
2018-06-13T03:52:30.586Z,68
2018-06-13T03:53:10.996Z,68
2018-06-13T03:53:52.535Z,68
2018-06-13T03:54:32.787Z,72
2018-06-13T03:55:13.963Z,72
2018-06-13T03:55:54.359Z,76
2018-06-13T03:56:34.795Z,76
2018-06-13T03:57:15.243Z,72
2018-06-13T03:57:55.600Z,76
2018-06-13T03:58:36.844Z,76
2018-06-13T03:59:17.204Z,76
2018-06-13T03:59:57.903Z,80
2018-06-13T04:00:38.348Z,80
2018-06-13T04:01:18.703Z,80
2018-06-13T04:01:59.061Z,88
2018-06-13T04:47:14.282Z,1224
2018-06-13T04:47:54.844Z,1364
2018-06-13T04:48:37.808Z,1288
2018-06-13T04:49:18.370Z,1328
2018-06-13T04:49:59.679Z,1448
2018-06-13T04:50:43.156Z,1560
2018-06-13T04:51:28.344Z,1636
2018-06-13T04:52:10.066Z,1664
2018-06-13T04:52:55.527Z,1688
2018-06-13T04:53:37.630Z,1728
2018-06-13T04:54:18.423Z,1884
2018-06-13T04:55:01.116Z,1804
2018-06-13T04:55:44.238Z,1836
2018-06-13T04:56:26.279Z,3452
2018-06-13T04:57:07.326Z,1372
2018-06-13T04:57:48.889Z,1256
2018-06-13T04:58:31.709Z,1220
2018-06-13T04:59:12.136Z,1108
2018-06-13T04:59:52.529Z,1024
2018-06-13T05:00:32.898Z,1016
2018-06-13T05:02:56.070Z,992
2018-06-13T05:03:36.527Z,1020
2018-06-13T05:04:16.957Z,1080
2018-06-13T05:04:57.760Z,1124
2018-06-13T05:05:38.237Z,1132
2018-06-13T05:06:18.530Z,1152
2018-06-13T05:06:59.257Z,1048
2018-06-13T05:07:39.631Z,904
2018-06-13T05:08:20.559Z,848
2018-06-13T05:09:01.225Z,856
2018-06-13T05:09:41.684Z,908
2018-06-13T05:10:22.063Z,936
2018-06-13T05:11:02.798Z,912
2018-06-13T05:11:43.007Z,936
2018-06-13T05:12:23.706Z,920
2018-06-13T05:13:04.458Z,868
2018-06-13T05:13:44.864Z,864
2018-06-13T05:14:25.514Z,872
2018-06-13T05:15:07.245Z,924
2018-06-13T05:15:48.224Z,984
2018-06-13T05:16:28.868Z,1008
2018-06-13T05:17:10.142Z,1052
2018-06-13T05:17:50.832Z,1056
2018-06-13T05:18:31.331Z,1124
2018-06-13T05:19:11.906Z,1212
2018-06-13T05:19:52.213Z,1224
2018-06-13T05:20:32.711Z,1172
2018-06-13T05:21:13.043Z,1156
2018-06-13T05:21:53.570Z,1160
2018-06-13T05:22:34.120Z,1196
2018-06-13T05:23:15.435Z,1292
2018-06-13T05:23:56.067Z,1380
2018-06-13T05:24:38.742Z,1428
2018-06-13T05:25:19.938Z,1436
2018-06-13T05:26:00.990Z,1488
2018-06-13T05:26:41.458Z,1564
2018-06-13T05:27:21.865Z,1520
2018-06-13T05:28:02.557Z,1368
2018-06-13T05:28:44.482Z,1276
2018-06-13T05:29:26.740Z,1256
2018-06-13T05:30:07.242Z,1280
2018-06-13T05:30:48.265Z,1312
2018-06-13T05:31:29.623Z,1284
2018-06-13T05:32:10.059Z,1264
2018-06-13T05:32:51.141Z,1316
2018-06-13T05:33:31.626Z,1404
2018-06-13T05:34:12.127Z,1452
2018-06-13T05:34:52.788Z,1316
2018-06-13T05:35:33.797Z,1144
2018-06-13T05:36:14.357Z,1028
2018-06-13T05:36:54.910Z,972
2018-06-13T05:37:35.793Z,928
2018-06-13T05:38:16.001Z,856
2018-06-13T05:39:00.589Z,816
2018-06-13T05:39:41.218Z,784
2018-06-13T05:40:21.911Z,776
2018-06-13T05:41:02.520Z,852
2018-06-13T05:41:43.559Z,880
2018-06-13T05:42:26.285Z,880
2018-06-13T05:43:07.717Z,880
2018-06-13T05:43:48.615Z,876
2018-06-13T05:44:29.077Z,884
2018-06-13T05:45:09.531Z,856
2018-06-13T05:45:50.121Z,804
2018-06-13T05:46:30.710Z,820
2018-06-13T05:47:11.115Z,852
2018-06-13T05:47:51.535Z,920
2018-06-13T05:48:34.252Z,1000
2018-06-13T05:49:13.548Z,1020
2018-06-13T05:49:54.255Z,1012
2018-06-13T05:50:34.870Z,1000
2018-06-13T05:51:15.295Z,1012
2018-06-13T05:51:55.691Z,988
2018-06-13T05:52:36.453Z,924
2018-06-13T05:53:16.977Z,956
2018-06-13T05:53:57.421Z,992
2018-06-13T05:54:38.085Z,1044
2018-06-13T05:55:18.581Z,1064
2018-06-13T05:55:58.955Z,1036
2018-06-13T05:56:40.644Z,988
2018-06-13T05:57:21.223Z,956
2018-06-13T05:58:02.432Z,984
2018-06-13T05:58:42.907Z,1024
2018-06-13T05:59:23.867Z,1020
2018-06-13T06:00:04.501Z,992
2018-06-13T06:00:44.997Z,988
2018-06-13T06:01:25.636Z,984
2018-06-13T06:02:05.884Z,996
2018-06-13T06:02:46.696Z,1044
2018-06-13T06:03:29.236Z,1104
2018-06-13T06:04:10.145Z,1144
2018-06-13T06:04:50.636Z,1164
2018-06-13T06:05:30.909Z,1176
2018-06-13T06:06:12.337Z,1176
2018-06-13T06:06:52.827Z,1128
2018-06-13T06:07:33.414Z,1104
2018-06-13T06:08:14.921Z,1108
2018-06-13T06:08:55.506Z,1108
2018-06-13T06:09:36.157Z,1140
2018-06-13T06:10:17.735Z,1176
2018-06-13T06:10:58.379Z,1164
2018-06-13T06:11:40.442Z,1120
2018-06-13T06:12:21.062Z,1092
2018-06-13T06:13:01.876Z,1060
2018-06-13T06:13:42.315Z,1068
2018-06-13T06:14:22.727Z,1072
2018-06-13T06:15:03.235Z,1060
2018-06-13T06:15:44.401Z,1076
2018-06-13T06:16:24.946Z,1108
2018-06-13T06:17:08.711Z,1096
2018-06-13T06:17:49.311Z,1104
2018-06-13T06:18:30.544Z,1092
2018-06-13T06:19:12.021Z,1084
2018-06-13T06:19:55.096Z,1092
2018-06-13T06:20:36.013Z,1092
2018-06-13T06:21:16.187Z,1100
2018-06-13T06:21:56.772Z,1096
2018-06-13T06:22:38.127Z,1112
2018-06-13T06:23:21.217Z,1092
2018-06-13T06:24:01.790Z,1092
2018-06-13T06:24:42.157Z,1108
2018-06-13T06:25:22.718Z,1100
2018-06-13T06:26:03.182Z,1140
2018-06-13T06:26:44.557Z,1248
2018-06-13T06:27:24.477Z,1248
2018-06-13T06:28:06.707Z,1300
2018-06-13T06:28:48.422Z,1308
2018-06-13T06:29:28.805Z,1300
2018-06-13T06:30:09.602Z,1380
2018-06-13T06:30:51.419Z,1492
2018-06-13T06:31:32.931Z,1576
2018-06-13T06:32:15.479Z,1672
2018-06-13T06:32:56.768Z,1648
2018-06-13T06:33:37.415Z,1648
2018-06-13T06:34:19.250Z,1756
2018-06-13T06:35:00.348Z,1776
2018-06-13T06:35:41.049Z,1756
2018-06-13T06:36:22.523Z,1816
2018-06-13T06:37:03.271Z,1760
2018-06-13T06:37:44.651Z,1748
2018-06-13T06:38:25.192Z,1804
2018-06-13T06:39:08.960Z,1792
2018-06-13T06:39:50.994Z,1884
2018-06-13T06:40:31.297Z,1916
2018-06-13T06:41:12.054Z,2084
2018-06-13T06:41:53.547Z,2268
2018-06-13T06:42:35.635Z,2632
2018-06-13T06:43:16.570Z,2536
2018-06-13T06:45:19.014Z,2396
2018-06-13T06:46:01.351Z,2552
2018-06-13T06:46:46.815Z,2316
2018-06-13T06:47:30.100Z,2200
2018-06-13T06:48:17.237Z,2152
2018-06-13T06:49:00.052Z,2280
2018-06-13T06:49:43.265Z,2128
2018-06-13T06:50:29.441Z,1912
2018-06-13T06:51:14.742Z,1772
2018-06-13T06:51:59.895Z,1736
2018-06-13T06:52:45.349Z,1696
2018-06-13T06:53:28.365Z,1688
2018-06-13T06:54:10.991Z,1776
2018-06-13T06:54:56.554Z,1996
2018-06-13T06:55:48.953Z,2072
2018-06-13T07:14:28.960Z,1640
2018-06-13T07:48:36.357Z,1444
2018-06-13T07:49:16.890Z,1520
2018-06-13T07:50:36.876Z,1600
2018-06-13T08:02:31.453Z,1272
2018-06-13T08:03:12.204Z,1200
2018-06-13T08:03:53.413Z,1116
2018-06-13T08:04:33.851Z,1088
2018-06-13T08:05:15.081Z,1044
2018-06-13T08:05:55.543Z,1008
2018-06-13T08:06:36.335Z,992
2018-06-13T08:07:16.852Z,972
2018-06-13T08:07:59.601Z,976
2018-06-13T08:08:40.434Z,1000
2018-06-13T08:09:22.112Z,940
2018-06-13T08:10:02.848Z,868
2018-06-13T08:10:43.235Z,784
2018-06-13T08:11:24.177Z,748
2018-06-13T08:12:04.539Z,736
2018-06-13T08:12:45.368Z,680
2018-06-13T08:13:25.905Z,652
2018-06-13T08:14:06.883Z,672
2018-06-13T08:14:46.926Z,668
2018-06-13T08:15:30.166Z,676
2018-06-13T08:16:14.947Z,752
2018-06-13T08:16:56.641Z,836
2018-06-13T08:17:39.007Z,868
2018-06-13T08:20:48.604Z,736
2018-06-13T08:21:28.909Z,732
2018-06-13T08:22:09.710Z,744
2018-06-13T08:22:50.447Z,752
2018-06-13T08:23:31.129Z,776
2018-06-13T08:24:14.878Z,896
2018-06-13T08:24:54.523Z,984
2018-06-13T08:25:35.223Z,1008
2018-06-13T08:26:16.120Z,1052
2018-06-13T08:27:11.269Z,1088
2018-06-13T08:30:51.349Z,1152
2018-06-13T08:31:31.986Z,1172
2018-06-13T08:32:12.744Z,1192
2018-06-13T08:32:53.305Z,1176
2018-06-13T08:33:34.256Z,1168
2018-06-13T08:34:15.662Z,1216
2018-06-13T08:34:55.798Z,1268
2018-06-13T08:35:36.579Z,1256
2018-06-13T08:36:17.135Z,1248
2018-06-13T08:36:58.379Z,1280
2018-06-13T08:37:39.511Z,1328
2018-06-13T08:38:20.133Z,1320
2018-06-13T08:39:00.433Z,1312
2018-06-13T08:39:40.849Z,1328
2018-06-13T08:40:21.467Z,1344
2018-06-13T08:41:01.930Z,1284
2018-06-13T08:41:42.252Z,1268
2018-06-13T08:42:22.830Z,1312
2018-06-13T08:43:03.562Z,1364
2018-06-13T08:43:44.010Z,1456
2018-06-13T08:44:24.820Z,1532
2018-06-13T08:45:05.400Z,1572
2018-06-13T08:45:46.009Z,1660
2018-06-13T08:46:29.011Z,1732
2018-06-13T08:47:10.190Z,1840
2018-06-13T08:47:50.431Z,2008
2018-06-13T08:48:31.308Z,2284
2018-06-13T08:49:12.035Z,2360
2018-06-13T08:49:52.432Z,2196
2018-06-13T08:50:33.907Z,2072
2018-06-13T08:51:17.231Z,1956
2018-06-13T08:52:01.304Z,1888
2018-06-13T08:52:41.926Z,1872
2018-06-13T08:53:24.006Z,1648
2018-06-13T08:54:05.194Z,1472
2018-06-13T08:54:45.217Z,1372
2018-06-13T08:55:25.841Z,1300
2018-06-13T08:57:51.379Z,812
2018-06-13T08:58:32.472Z,720
2018-06-13T08:59:12.862Z,660
2018-06-13T08:59:55.482Z,680
2018-06-13T09:00:36.505Z,760
2018-06-13T09:01:18.763Z,896
2018-06-13T09:01:59.791Z,856
2018-06-13T09:02:40.648Z,780
2018-06-13T09:03:21.046Z,772
2018-06-13T09:04:03.607Z,796
2018-06-13T09:04:44.421Z,748
2018-06-13T09:05:25.384Z,668
2018-06-13T09:06:07.222Z,660
2018-06-13T09:07:23.820Z,744
2018-06-13T09:08:04.369Z,796
2018-06-13T09:08:45.208Z,828
2018-06-13T09:09:25.844Z,836
2018-06-13T09:10:06.347Z,796
2018-06-13T09:10:47.023Z,760
2018-06-13T09:11:27.424Z,708
2018-06-13T09:12:07.866Z,636
2018-06-13T09:12:49.059Z,568
2018-06-13T09:13:30.968Z,520
2018-06-13T09:14:11.733Z,492
2018-06-13T09:14:54.313Z,472
2018-06-13T09:15:34.933Z,444
2018-06-13T09:16:15.648Z,460
2018-06-13T09:16:56.138Z,504
2018-06-13T09:17:36.776Z,552
2018-06-13T09:18:17.456Z,604
2018-06-13T09:18:58.271Z,628
2018-06-13T09:19:39.139Z,612
2018-06-13T09:20:21.059Z,636
2018-06-13T09:21:01.940Z,612
2018-06-13T09:21:43.456Z,608
2018-06-13T09:22:23.864Z,564
2018-06-13T09:23:04.361Z,536
2018-06-13T09:23:44.950Z,548
2018-06-13T09:24:26.451Z,580
2018-06-13T09:25:06.931Z,600
2018-06-13T09:25:47.503Z,624
2018-06-13T09:26:29.153Z,676
2018-06-13T09:27:09.670Z,680
2018-06-13T09:27:50.075Z,676
2018-06-13T09:28:31.465Z,660
2018-06-13T09:29:12.185Z,636
2018-06-13T09:29:52.493Z,596
2018-06-13T09:30:33.620Z,536
2018-06-13T09:31:17.101Z,480
2018-06-13T09:31:58.061Z,484
2018-06-13T09:32:39.559Z,532
2018-06-13T09:33:19.984Z,500
2018-06-13T09:34:00.753Z,528
2018-06-13T09:34:41.443Z,548
2018-06-13T09:35:21.965Z,560
2018-06-13T09:36:02.808Z,596
2018-06-13T09:36:43.233Z,648
2018-06-13T09:39:12.435Z,608
2018-06-13T09:47:06.903Z,592
2018-06-13T09:47:43.906Z,676
2018-06-13T09:49:11.979Z,768
2018-06-13T09:49:52.887Z,828
2018-06-13T09:50:33.925Z,860
2018-06-13T09:51:15.950Z,912
2018-06-13T09:51:57.292Z,992
2018-06-13T09:52:38.437Z,1140
2018-06-13T09:53:20.987Z,1220
2018-06-13T09:54:01.091Z,1256
2018-06-13T09:54:42.922Z,1304
2018-06-13T09:55:24.972Z,1440
2018-06-13T09:56:07.933Z,1564
2018-06-13T09:56:52.292Z,1628
2018-06-13T09:57:34.790Z,1676
2018-06-13T09:58:15.599Z,1668
2018-06-13T09:58:56.972Z,1676
2018-06-13T09:59:38.918Z,1772
2018-06-13T10:00:21.355Z,1840
2018-06-13T10:01:01.187Z,1904
2018-06-13T10:01:41.926Z,1976
2018-06-13T10:02:25.407Z,2004
2018-06-13T10:03:07.307Z,1928
2018-06-13T10:03:51.237Z,1884
2018-06-13T10:45:18.637Z,980
2018-06-13T10:46:00.114Z,1116
2018-06-13T10:46:42.036Z,1176
2018-06-13T10:47:22.615Z,1200
2018-06-13T10:48:03.306Z,1288
2018-06-13T10:48:44.713Z,1364
2018-06-13T10:53:04.606Z,1356
2018-06-13T10:53:45.267Z,1408
2018-06-13T10:54:25.800Z,1496
2018-06-13T10:55:07.622Z,1496
2018-06-13T10:55:49.040Z,1508
2018-06-13T10:56:31.561Z,1556
2018-06-13T10:57:13.649Z,1576
2018-06-13T10:57:54.124Z,1596
2018-06-13T10:58:34.718Z,1612
2018-06-13T10:59:15.562Z,1580
2018-06-13T10:59:57.199Z,1568
2018-06-13T11:00:38.691Z,1572
2018-06-13T11:01:19.302Z,1568
2018-06-13T11:01:59.935Z,1552
2018-06-13T11:02:40.532Z,1536
2018-06-13T11:03:21.195Z,1516
2018-06-13T11:04:01.765Z,1484
2018-06-13T11:04:42.470Z,1488
2018-06-13T11:05:24.908Z,1488
2018-06-13T11:06:06.311Z,1516
2018-06-13T11:06:47.203Z,1560
2018-06-13T11:07:28.506Z,1660
2018-06-13T11:08:09.455Z,1752
2018-06-13T11:08:50.655Z,1820
2018-06-13T11:09:32.054Z,1864
2018-06-13T11:12:01.718Z,2016
2018-06-13T11:12:42.291Z,2076
2018-06-13T11:13:22.881Z,2124
2018-06-13T11:14:03.218Z,2196
2018-06-13T11:14:43.908Z,2260
2018-06-13T11:15:24.406Z,2304
2018-06-13T11:16:05.603Z,2328
2018-06-13T11:16:46.348Z,2368
2018-06-13T11:17:26.946Z,2440
2018-06-13T11:18:07.580Z,2496
2018-06-13T11:18:48.501Z,2520
2018-06-13T11:19:29.529Z,2536
2018-06-13T11:20:10.129Z,2552
2018-06-13T11:20:50.720Z,2608
2018-06-13T11:21:31.480Z,2640
2018-06-13T11:22:12.415Z,2680
2018-06-13T11:22:52.929Z,2716
2018-06-13T11:23:33.510Z,2764
2018-06-13T11:24:14.074Z,2788
2018-06-13T11:24:56.115Z,2832
2018-06-13T11:25:37.482Z,2876
2018-06-13T11:26:19.068Z,2904
2018-06-13T11:27:00.100Z,2916
2018-06-13T11:27:40.377Z,2940
2018-06-13T11:28:21.244Z,3000
2018-06-13T11:29:01.897Z,3044
2018-06-13T11:29:42.433Z,3096
2018-06-13T11:30:22.892Z,3148
2018-06-13T11:31:03.429Z,3204
2018-06-13T11:31:44.829Z,3228
2018-06-13T11:32:25.836Z,3220
2018-06-13T11:33:06.266Z,3192
2018-06-13T11:35:44.466Z,2960
2018-06-13T11:36:24.568Z,2872
2018-06-13T11:37:06.307Z,2840
2018-06-13T11:37:46.961Z,2828
2018-06-13T11:38:28.619Z,2832
2018-06-13T11:39:09.396Z,2864
2018-06-13T11:39:51.254Z,2836
2018-06-13T11:40:31.376Z,2768
2018-06-13T11:41:12.081Z,2684
2018-06-13T11:41:53.265Z,2636
2018-06-13T11:42:34.321Z,2568
2018-06-13T11:43:15.270Z,2436
2018-06-13T11:43:55.906Z,2348
2018-06-13T11:44:37.268Z,2236
2018-06-13T11:45:19.305Z,2132
2018-06-13T11:46:00.506Z,2036
2018-06-13T11:46:41.775Z,1924
2018-06-13T11:47:38.043Z,1732
2018-06-13T11:48:18.986Z,1568
2018-06-13T11:49:00.529Z,1496
2018-06-13T11:49:41.022Z,1444
2018-06-13T11:50:21.448Z,1416
2018-06-13T11:53:53.577Z,1572
2018-06-13T11:54:34.114Z,1528
2018-06-13T11:55:14.486Z,1488
2018-06-13T11:55:55.026Z,1460
2018-06-13T11:56:35.995Z,1460
2018-06-13T11:57:16.502Z,1496
2018-06-13T11:57:57.123Z,1540
2018-06-13T11:58:37.947Z,1540
2018-06-13T11:59:18.343Z,1568
2018-06-13T11:59:58.909Z,1616
2018-06-13T12:00:39.388Z,1652
2018-06-13T12:01:19.879Z,1684
2018-06-13T12:02:01.419Z,1748
2018-06-13T12:02:42.256Z,1772
2018-06-13T12:03:22.939Z,1736
2018-06-13T12:04:03.703Z,1780
2018-06-13T12:04:44.009Z,1784
2018-06-13T12:05:25.231Z,1784
2018-06-13T12:06:05.548Z,1800
2018-06-13T12:06:46.218Z,1848
2018-06-13T12:07:27.350Z,1872
2018-06-13T12:08:08.037Z,1872
2018-06-13T12:08:49.711Z,1816
2018-06-13T12:09:30.161Z,1872
2018-06-13T12:10:10.635Z,1904
2018-06-13T12:10:52.911Z,1900
2018-06-13T12:11:33.133Z,1860
2018-06-13T12:12:13.921Z,1764
2018-06-13T12:12:54.323Z,1752
2018-06-13T12:13:35.850Z,1748
2018-06-13T12:14:16.431Z,1752
2018-06-13T12:14:56.930Z,1692
2018-06-13T12:15:37.353Z,1608
2018-06-13T12:16:19.065Z,1588
2018-06-13T12:16:59.832Z,1596
2018-06-13T12:17:40.336Z,1572
2018-06-13T12:18:21.069Z,1568
2018-06-13T12:19:01.722Z,1564
2018-06-13T12:19:44.421Z,1600
2018-06-13T12:20:24.945Z,1820
2018-06-13T12:21:04.889Z,2068
2018-06-13T12:21:45.514Z,2136
2018-06-13T12:22:26.312Z,2268
2018-06-13T12:23:06.939Z,2412
2018-06-13T12:23:47.426Z,2476
2018-06-13T12:24:27.836Z,2532
2018-06-13T12:25:09.432Z,2488
2018-06-13T12:25:49.861Z,2416
2018-06-13T12:26:30.500Z,2396
2018-06-13T12:27:10.969Z,2396
2018-06-13T12:27:52.385Z,2288
2018-06-13T12:28:32.176Z,2212
2018-06-13T12:29:12.613Z,2188
2018-06-13T12:29:53.035Z,2240
2018-06-13T12:30:33.558Z,2232
2018-06-13T12:31:14.238Z,2196
2018-06-13T12:31:58.433Z,2176
2018-06-13T12:32:39.545Z,2072
2018-06-13T12:33:21.905Z,2088
2018-06-13T12:34:02.604Z,2060
2018-06-13T12:34:44.621Z,2076
2018-06-13T12:35:26.285Z,2136
2018-06-13T12:39:11.033Z,1416
2018-06-13T12:40:05.493Z,1436
2018-06-13T12:40:48.185Z,1472
2018-06-13T12:41:37.013Z,1488
2018-06-13T12:42:15.263Z,1476
2018-06-13T12:42:55.800Z,1516
2018-06-13T12:43:37.042Z,1556
2018-06-13T12:44:18.440Z,1736
2018-06-13T12:44:59.399Z,1976
2018-06-13T12:45:40.315Z,2112
2018-06-13T12:46:21.892Z,2216
2018-06-13T12:47:09.241Z,2328
2018-06-13T12:47:57.046Z,2460
2018-06-13T12:48:36.318Z,2500
2018-06-13T12:49:16.979Z,2536